sensor_id;sensor_type;location;lat;lon;timestamp;P1;durP1;ratioP1;P2;durP2;ratioP2
77010;SDS011;65945;53.148;17.956;2023-03-19T00:01:49;51.70;;;21.00;;
77010;SDS011;65945;53.148;17.956;2023-03-19T00:04:15;61.20;;;25.30;;
77010;SDS011;65945;53.148;17.956;2023-03-19T00:06:42;57.40;;;24.00;;
77010;SDS011;65945;53.148;17.956;2023-03-19T00:09:09;56.50;;;23.20;;
77010;SDS011;65945;53.148;17.956;2023-03-19T00:11:36;50.70;;;22.60;;
77010;SDS011;65945;53.148;17.956;2023-03-19T00:14:04;50.90;;;21.60;;
77010;SDS011;65945;53.148;17.956;2023-03-19T00:16:31;54.00;;;22.20;;
77010;SDS011;65945;53.148;17.956;2023-03-19T00:18:57;56.20;;;22.60;;
77010;SDS011;65945;53.148;17.956;2023-03-19T00:21:24;54.80;;;23.50;;
77010;SDS011;65945;53.148;17.956;2023-03-19T00:23:51;60.10;;;24.10;;
77010;SDS011;65945;53.148;17.956;2023-03-19T00:26:18;59.80;;;23.90;;
77010;SDS011;65945;53.148;17.956;2023-03-19T00:28:45;59.30;;;22.20;;
77010;SDS011;65945;53.148;17.956;2023-03-19T00:31:13;60.30;;;23.90;;
77010;SDS011;65945;53.148;17.956;2023-03-19T00:33:42;62.90;;;25.50;;
77010;SDS011;65945;53.148;17.956;2023-03-19T00:36:09;67.20;;;25.50;;
77010;SDS011;65945;53.148;17.956;2023-03-19T00:38:36;66.20;;;25.40;;
77010;SDS011;65945;53.148;17.956;2023-03-19T00:41:03;60.20;;;23.40;;
77010;SDS011;65945;53.148;17.956;2023-03-19T00:43:31;51.80;;;20.60;;
77010;SDS011;65945;53.148;17.956;2023-03-19T00:45:57;57.80;;;22.20;;
77010;SDS011;65945;53.148;17.956;2023-03-19T00:48:24;65.70;;;25.90;;
77010;SDS011;65945;53.148;17.956;2023-03-19T00:50:51;61.90;;;23.90;;
77010;SDS011;65945;53.148;17.956;2023-03-19T00:53:18;63.10;;;23.90;;
77010;SDS011;65945;53.148;17.956;2023-03-19T00:55:45;60.70;;;23.20;;
77010;SDS011;65945;53.148;17.956;2023-03-19T00:58:12;65.40;;;23.30;;
77010;SDS011;65945;53.148;17.956;2023-03-19T01:00:38;73.20;;;24.20;;
77010;SDS011;65945;53.148;17.956;2023-03-19T01:03:05;61.30;;;24.20;;
77010;SDS011;65945;53.148;17.956;2023-03-19T01:05:34;59.80;;;24.50;;
77010;SDS011;65945;53.148;17.956;2023-03-19T01:08:01;66.20;;;24.40;;
77010;SDS011;65945;53.148;17.956;2023-03-19T01:10:31;55.10;;;21.70;;
77010;SDS011;65945;53.148;17.956;2023-03-19T01:13:00;60.90;;;22.20;;
77010;SDS011;65945;53.148;17.956;2023-03-19T01:15:27;55.10;;;22.30;;
77010;SDS011;65945;53.148;17.956;2023-03-19T01:17:53;59.10;;;23.70;;
77010;SDS011;65945;53.148;17.956;2023-03-19T01:20:20;56.70;;;21.50;;
77010;SDS011;65945;53.148;17.956;2023-03-19T01:22:49;58.30;;;21.20;;
77010;SDS011;65945;53.148;17.956;2023-03-19T01:25:16;54.40;;;20.90;;
77010;SDS011;65945;53.148;17.956;2023-03-19T01:27:52;47.60;;;20.80;;
77010;SDS011;65945;53.148;17.956;2023-03-19T01:30:20;50.20;;;20.60;;
77010;SDS011;65945;53.148;17.956;2023-03-19T01:33:10;49.60;;;19.90;;
77010;SDS011;65945;53.148;17.956;2023-03-19T01:35:51;48.40;;;20.80;;
77010;SDS011;65945;53.148;17.956;2023-03-19T01:38:18;50.60;;;20.50;;
77010;SDS011;65945;53.148;17.956;2023-03-19T01:40:46;45.50;;;20.20;;
77010;SDS011;65945;53.148;17.956;2023-03-19T01:43:23;47.40;;;19.80;;
77010;SDS011;65945;53.148;17.956;2023-03-19T01:46:41;50.50;;;20.40;;
77010;SDS011;65945;53.148;17.956;2023-03-19T01:49:32;46.80;;;20.20;;
77010;SDS011;65945;53.148;17.956;2023-03-19T01:52:17;49.40;;;20.60;;
77010;SDS011;65945;53.148;17.956;2023-03-19T01:55:03;46.30;;;20.20;;
77010;SDS011;65945;53.148;17.956;2023-03-19T01:58:04;46.50;;;19.50;;
77010;SDS011;65945;53.148;17.956;2023-03-19T02:01:04;40.30;;;18.10;;
77010;SDS011;65945;53.148;17.956;2023-03-19T02:03:32;42.20;;;18.70;;
77010;SDS011;65945;53.148;17.956;2023-03-19T02:06:11;44.30;;;18.70;;
77010;SDS011;65945;53.148;17.956;2023-03-19T02:08:39;50.50;;;20.80;;
77010;SDS011;65945;53.148;17.956;2023-03-19T02:11:07;46.10;;;20.50;;
77010;SDS011;65945;53.148;17.956;2023-03-19T02:13:35;53.00;;;20.80;;
77010;SDS011;65945;53.148;17.956;2023-03-19T02:16:01;51.90;;;21.20;;
77010;SDS011;65945;53.148;17.956;2023-03-19T02:18:29;56.60;;;23.90;;
77010;SDS011;65945;53.148;17.956;2023-03-19T02:21:05;56.90;;;24.40;;
77010;SDS011;65945;53.148;17.956;2023-03-19T02:26:45;65.60;;;25.90;;
77010;SDS011;65945;53.148;17.956;2023-03-19T02:29:13;58.30;;;27.20;;
77010;SDS011;65945;53.148;17.956;2023-03-19T02:31:39;58.60;;;27.40;;
77010;SDS011;65945;53.148;17.956;2023-03-19T02:36:55;75.40;;;27.90;;
77010;SDS011;65945;53.148;17.956;2023-03-19T02:39:30;65.30;;;29.80;;
77010;SDS011;65945;53.148;17.956;2023-03-19T02:42:01;73.30;;;31.10;;
77010;SDS011;65945;53.148;17.956;2023-03-19T02:44:29;73.90;;;31.30;;
77010;SDS011;65945;53.148;17.956;2023-03-19T02:46:56;73.00;;;33.60;;
77010;SDS011;65945;53.148;17.956;2023-03-19T02:49:23;70.80;;;33.60;;
77010;SDS011;65945;53.148;17.956;2023-03-19T02:51:50;70.60;;;32.50;;
77010;SDS011;65945;53.148;17.956;2023-03-19T02:54:17;75.10;;;33.20;;
77010;SDS011;65945;53.148;17.956;2023-03-19T02:56:43;76.80;;;34.00;;
77010;SDS011;65945;53.148;17.956;2023-03-19T02:59:10;74.00;;;31.10;;
77010;SDS011;65945;53.148;17.956;2023-03-19T03:01:36;72.30;;;30.70;;
77010;SDS011;65945;53.148;17.956;2023-03-19T03:04:03;59.40;;;27.50;;
77010;SDS011;65945;53.148;17.956;2023-03-19T03:06:30;61.50;;;26.70;;
77010;SDS011;65945;53.148;17.956;2023-03-19T03:08:57;53.30;;;25.40;;
77010;SDS011;65945;53.148;17.956;2023-03-19T03:11:24;55.30;;;24.70;;
77010;SDS011;65945;53.148;17.956;2023-03-19T03:13:51;61.10;;;26.80;;
77010;SDS011;65945;53.148;17.956;2023-03-19T03:16:18;56.10;;;26.00;;
77010;SDS011;65945;53.148;17.956;2023-03-19T03:18:44;59.00;;;28.30;;
77010;SDS011;65945;53.148;17.956;2023-03-19T03:21:11;60.00;;;28.80;;
77010;SDS011;65945;53.148;17.956;2023-03-19T03:23:37;62.90;;;29.60;;
77010;SDS011;65945;53.148;17.956;2023-03-19T03:26:04;65.30;;;30.20;;
77010;SDS011;65945;53.148;17.956;2023-03-19T03:28:32;68.00;;;30.00;;
77010;SDS011;65945;53.148;17.956;2023-03-19T03:33:47;66.60;;;30.90;;
77010;SDS011;65945;53.148;17.956;2023-03-19T03:36:14;65.10;;;30.20;;
77010;SDS011;65945;53.148;17.956;2023-03-19T03:38:41;65.90;;;31.40;;
77010;SDS011;65945;53.148;17.956;2023-03-19T03:41:08;75.10;;;30.80;;
77010;SDS011;65945;53.148;17.956;2023-03-19T03:43:34;61.30;;;28.20;;
77010;SDS011;65945;53.148;17.956;2023-03-19T03:46:01;63.00;;;28.00;;
77010;SDS011;65945;53.148;17.956;2023-03-19T03:48:28;60.60;;;28.10;;
77010;SDS011;65945;53.148;17.956;2023-03-19T03:50:54;61.40;;;28.20;;
77010;SDS011;65945;53.148;17.956;2023-03-19T03:53:24;62.20;;;28.80;;
77010;SDS011;65945;53.148;17.956;2023-03-19T03:55:51;69.40;;;29.90;;
77010;SDS011;65945;53.148;17.956;2023-03-19T03:58:20;56.70;;;26.80;;
77010;SDS011;65945;53.148;17.956;2023-03-19T04:00:47;64.00;;;32.80;;
77010;SDS011;65945;53.148;17.956;2023-03-19T04:03:14;62.80;;;30.00;;
77010;SDS011;65945;53.148;17.956;2023-03-19T04:05:40;54.00;;;26.40;;
77010;SDS011;65945;53.148;17.956;2023-03-19T04:08:07;53.50;;;24.10;;
77010;SDS011;65945;53.148;17.956;2023-03-19T04:10:34;51.80;;;24.10;;
77010;SDS011;65945;53.148;17.956;2023-03-19T04:13:02;53.90;;;25.10;;
77010;SDS011;65945;53.148;17.956;2023-03-19T04:15:30;48.40;;;23.30;;
77010;SDS011;65945;53.148;17.956;2023-03-19T04:17:57;48.60;;;21.60;;
77010;SDS011;65945;53.148;17.956;2023-03-19T04:20:23;47.60;;;22.90;;
77010;SDS011;65945;53.148;17.956;2023-03-19T04:22:50;49.70;;;22.30;;
77010;SDS011;65945;53.148;17.956;2023-03-19T04:25:17;49.60;;;24.00;;
77010;SDS011;65945;53.148;17.956;2023-03-19T04:27:44;51.30;;;23.70;;
77010;SDS011;65945;53.148;17.956;2023-03-19T04:30:11;43.60;;;21.80;;
77010;SDS011;65945;53.148;17.956;2023-03-19T04:32:38;47.80;;;23.60;;
77010;SDS011;65945;53.148;17.956;2023-03-19T04:35:05;44.60;;;22.90;;
77010;SDS011;65945;53.148;17.956;2023-03-19T04:37:32;54.70;;;23.30;;
77010;SDS011;65945;53.148;17.956;2023-03-19T04:39:59;51.90;;;23.40;;
77010;SDS011;65945;53.148;17.956;2023-03-19T04:42:26;51.40;;;24.20;;
77010;SDS011;65945;53.148;17.956;2023-03-19T04:45:03;52.20;;;23.20;;
77010;SDS011;65945;53.148;17.956;2023-03-19T04:47:31;53.20;;;23.00;;
77010;SDS011;65945;53.148;17.956;2023-03-19T04:49:59;53.00;;;22.90;;
77010;SDS011;65945;53.148;17.956;2023-03-19T04:52:26;53.70;;;23.00;;
77010;SDS011;65945;53.148;17.956;2023-03-19T04:54:54;47.30;;;23.10;;
77010;SDS011;65945;53.148;17.956;2023-03-19T04:57:21;56.90;;;23.80;;
77010;SDS011;65945;53.148;17.956;2023-03-19T04:59:48;48.40;;;23.50;;
77010;SDS011;65945;53.148;17.956;2023-03-19T05:02:15;55.10;;;24.40;;
77010;SDS011;65945;53.148;17.956;2023-03-19T05:04:44;52.30;;;25.10;;
77010;SDS011;65945;53.148;17.956;2023-03-19T05:07:12;54.60;;;27.40;;
77010;SDS011;65945;53.148;17.956;2023-03-19T05:09:40;57.00;;;27.40;;
77010;SDS011;65945;53.148;17.956;2023-03-19T05:12:09;53.00;;;25.20;;
77010;SDS011;65945;53.148;17.956;2023-03-19T05:14:41;52.10;;;24.20;;
77010;SDS011;65945;53.148;17.956;2023-03-19T05:17:14;47.90;;;24.00;;
77010;SDS011;65945;53.148;17.956;2023-03-19T05:19:48;56.00;;;27.10;;
77010;SDS011;65945;53.148;17.956;2023-03-19T05:22:15;50.60;;;24.90;;
77010;SDS011;65945;53.148;17.956;2023-03-19T05:24:44;53.40;;;25.60;;
77010;SDS011;65945;53.148;17.956;2023-03-19T05:27:12;48.80;;;24.70;;
77010;SDS011;65945;53.148;17.956;2023-03-19T05:30:11;49.00;;;22.20;;
77010;SDS011;65945;53.148;17.956;2023-03-19T05:32:48;50.20;;;23.30;;
77010;SDS011;65945;53.148;17.956;2023-03-19T05:35:32;50.90;;;24.10;;
77010;SDS011;65945;53.148;17.956;2023-03-19T05:38:00;55.90;;;25.60;;
77010;SDS011;65945;53.148;17.956;2023-03-19T05:40:27;50.30;;;27.00;;
77010;SDS011;65945;53.148;17.956;2023-03-19T05:42:54;57.10;;;27.60;;
77010;SDS011;65945;53.148;17.956;2023-03-19T05:45:22;70.20;;;30.30;;
77010;SDS011;65945;53.148;17.956;2023-03-19T05:47:52;77.80;;;36.10;;
77010;SDS011;65945;53.148;17.956;2023-03-19T05:50:19;61.00;;;31.70;;
77010;SDS011;65945;53.148;17.956;2023-03-19T05:53:04;60.80;;;30.20;;
77010;SDS011;65945;53.148;17.956;2023-03-19T05:55:32;66.00;;;31.10;;
77010;SDS011;65945;53.148;17.956;2023-03-19T05:58:04;64.40;;;28.90;;
77010;SDS011;65945;53.148;17.956;2023-03-19T06:00:31;67.60;;;32.50;;
77010;SDS011;65945;53.148;17.956;2023-03-19T06:02:57;68.60;;;30.00;;
77010;SDS011;65945;53.148;17.956;2023-03-19T06:05:37;61.50;;;26.50;;
77010;SDS011;65945;53.148;17.956;2023-03-19T06:08:33;55.30;;;25.30;;
77010;SDS011;65945;53.148;17.956;2023-03-19T06:11:15;54.50;;;26.00;;
77010;SDS011;65945;53.148;17.956;2023-03-19T06:13:42;52.00;;;25.60;;
77010;SDS011;65945;53.148;17.956;2023-03-19T06:16:13;50.50;;;23.30;;
77010;SDS011;65945;53.148;17.956;2023-03-19T06:18:46;47.30;;;23.00;;
77010;SDS011;65945;53.148;17.956;2023-03-19T06:21:14;50.30;;;25.00;;
77010;SDS011;65945;53.148;17.956;2023-03-19T06:23:41;56.30;;;26.80;;
77010;SDS011;65945;53.148;17.956;2023-03-19T06:26:08;127.60;;;57.30;;
77010;SDS011;65945;53.148;17.956;2023-03-19T06:28:42;54.50;;;22.90;;
77010;SDS011;65945;53.148;17.956;2023-03-19T06:31:09;51.10;;;22.60;;
77010;SDS011;65945;53.148;17.956;2023-03-19T06:33:57;53.90;;;22.80;;
77010;SDS011;65945;53.148;17.956;2023-03-19T06:36:29;49.20;;;22.50;;
77010;SDS011;65945;53.148;17.956;2023-03-19T06:38:56;54.30;;;24.20;;
77010;SDS011;65945;53.148;17.956;2023-03-19T06:41:23;52.90;;;23.20;;
77010;SDS011;65945;53.148;17.956;2023-03-19T06:43:53;58.80;;;25.20;;
77010;SDS011;65945;53.148;17.956;2023-03-19T06:46:19;56.10;;;26.00;;
77010;SDS011;65945;53.148;17.956;2023-03-19T06:48:46;57.40;;;26.30;;
77010;SDS011;65945;53.148;17.956;2023-03-19T06:51:13;52.00;;;26.20;;
77010;SDS011;65945;53.148;17.956;2023-03-19T06:53:39;54.90;;;25.60;;
77010;SDS011;65945;53.148;17.956;2023-03-19T06:56:06;58.50;;;28.00;;
77010;SDS011;65945;53.148;17.956;2023-03-19T06:58:32;56.80;;;26.50;;
77010;SDS011;65945;53.148;17.956;2023-03-19T07:01:01;56.20;;;25.80;;
77010;SDS011;65945;53.148;17.956;2023-03-19T07:03:28;58.50;;;25.80;;
77010;SDS011;65945;53.148;17.956;2023-03-19T07:05:54;53.70;;;25.90;;
77010;SDS011;65945;53.148;17.956;2023-03-19T07:08:21;62.30;;;26.30;;
77010;SDS011;65945;53.148;17.956;2023-03-19T07:10:48;58.40;;;28.70;;
77010;SDS011;65945;53.148;17.956;2023-03-19T07:13:14;61.30;;;27.20;;
77010;SDS011;65945;53.148;17.956;2023-03-19T07:15:41;58.90;;;27.40;;
77010;SDS011;65945;53.148;17.956;2023-03-19T07:18:08;60.00;;;27.20;;
77010;SDS011;65945;53.148;17.956;2023-03-19T07:20:34;60.50;;;28.10;;
77010;SDS011;65945;53.148;17.956;2023-03-19T07:23:01;64.40;;;29.20;;
77010;SDS011;65945;53.148;17.956;2023-03-19T07:25:27;62.40;;;28.90;;
77010;SDS011;65945;53.148;17.956;2023-03-19T07:27:54;61.40;;;29.70;;
77010;SDS011;65945;53.148;17.956;2023-03-19T07:30:21;62.20;;;29.40;;
77010;SDS011;65945;53.148;17.956;2023-03-19T07:32:48;60.20;;;29.50;;
77010;SDS011;65945;53.148;17.956;2023-03-19T07:35:14;61.90;;;30.20;;
77010;SDS011;65945;53.148;17.956;2023-03-19T07:37:41;69.30;;;31.40;;
77010;SDS011;65945;53.148;17.956;2023-03-19T07:40:08;77.90;;;33.10;;
77010;SDS011;65945;53.148;17.956;2023-03-19T07:42:35;74.60;;;32.70;;
77010;SDS011;65945;53.148;17.956;2023-03-19T07:45:02;69.30;;;32.10;;
77010;SDS011;65945;53.148;17.956;2023-03-19T07:47:30;67.00;;;31.00;;
77010;SDS011;65945;53.148;17.956;2023-03-19T07:49:57;68.30;;;30.60;;
77010;SDS011;65945;53.148;17.956;2023-03-19T07:52:24;67.10;;;30.60;;
77010;SDS011;65945;53.148;17.956;2023-03-19T07:54:51;74.40;;;32.20;;
77010;SDS011;65945;53.148;17.956;2023-03-19T07:57:18;60.70;;;29.50;;
77010;SDS011;65945;53.148;17.956;2023-03-19T07:59:45;65.70;;;31.20;;
77010;SDS011;65945;53.148;17.956;2023-03-19T08:02:12;74.60;;;33.70;;
77010;SDS011;65945;53.148;17.956;2023-03-19T08:04:39;69.50;;;31.90;;
77010;SDS011;65945;53.148;17.956;2023-03-19T08:07:07;60.70;;;29.00;;
77010;SDS011;65945;53.148;17.956;2023-03-19T08:09:36;46.40;;;22.60;;
77010;SDS011;65945;53.148;17.956;2023-03-19T08:12:03;60.00;;;28.20;;
77010;SDS011;65945;53.148;17.956;2023-03-19T08:14:30;61.70;;;29.40;;
77010;SDS011;65945;53.148;17.956;2023-03-19T08:16:58;65.50;;;31.40;;
77010;SDS011;65945;53.148;17.956;2023-03-19T08:19:25;60.40;;;30.10;;
77010;SDS011;65945;53.148;17.956;2023-03-19T08:21:52;65.80;;;29.80;;
77010;SDS011;65945;53.148;17.956;2023-03-19T08:24:18;63.60;;;28.40;;
77010;SDS011;65945;53.148;17.956;2023-03-19T08:26:45;65.00;;;30.50;;
77010;SDS011;65945;53.148;17.956;2023-03-19T08:29:12;61.10;;;29.50;;
77010;SDS011;65945;53.148;17.956;2023-03-19T08:31:38;61.00;;;29.70;;
77010;SDS011;65945;53.148;17.956;2023-03-19T08:34:07;56.60;;;27.50;;
77010;SDS011;65945;53.148;17.956;2023-03-19T08:36:35;59.60;;;28.70;;
77010;SDS011;65945;53.148;17.956;2023-03-19T08:39:02;68.10;;;28.70;;
77010;SDS011;65945;53.148;17.956;2023-03-19T08:41:29;60.90;;;29.80;;
77010;SDS011;65945;53.148;17.956;2023-03-19T08:43:56;54.30;;;27.20;;
77010;SDS011;65945;53.148;17.956;2023-03-19T08:46:23;56.40;;;27.10;;
77010;SDS011;65945;53.148;17.956;2023-03-19T08:48:50;55.50;;;27.40;;
77010;SDS011;65945;53.148;17.956;2023-03-19T08:51:17;52.80;;;26.00;;
77010;SDS011;65945;53.148;17.956;2023-03-19T08:53:44;50.60;;;26.10;;
77010;SDS011;65945;53.148;17.956;2023-03-19T08:56:10;51.10;;;26.30;;
77010;SDS011;65945;53.148;17.956;2023-03-19T08:58:37;52.60;;;27.50;;
77010;SDS011;65945;53.148;17.956;2023-03-19T09:01:09;52.10;;;26.10;;
77010;SDS011;65945;53.148;17.956;2023-03-19T09:03:37;63.30;;;26.30;;
77010;SDS011;65945;53.148;17.956;2023-03-19T09:06:06;53.50;;;27.20;;
77010;SDS011;65945;53.148;17.956;2023-03-19T09:08:34;54.00;;;26.60;;
77010;SDS011;65945;53.148;17.956;2023-03-19T09:11:03;48.30;;;24.70;;
77010;SDS011;65945;53.148;17.956;2023-03-19T09:13:30;45.70;;;22.50;;
77010;SDS011;65945;53.148;17.956;2023-03-19T09:15:57;53.70;;;24.40;;
77010;SDS011;65945;53.148;17.956;2023-03-19T09:18:23;50.40;;;23.90;;
77010;SDS011;65945;53.148;17.956;2023-03-19T09:20:51;43.70;;;21.40;;
77010;SDS011;65945;53.148;17.956;2023-03-19T09:23:19;48.20;;;21.90;;
77010;SDS011;65945;53.148;17.956;2023-03-19T09:25:47;42.60;;;21.90;;
77010;SDS011;65945;53.148;17.956;2023-03-19T09:28:14;44.60;;;21.70;;
77010;SDS011;65945;53.148;17.956;2023-03-19T09:30:43;39.10;;;19.40;;
77010;SDS011;65945;53.148;17.956;2023-03-19T09:33:12;43.10;;;20.20;;
77010;SDS011;65945;53.148;17.956;2023-03-19T09:35:40;38.20;;;18.40;;
77010;SDS011;65945;53.148;17.956;2023-03-19T09:38:07;41.00;;;19.60;;
77010;SDS011;65945;53.148;17.956;2023-03-19T09:40:38;41.60;;;20.70;;
77010;SDS011;65945;53.148;17.956;2023-03-19T09:47:07;39.10;;;19.00;;
77010;SDS011;65945;53.148;17.956;2023-03-19T09:51:58;37.00;;;18.60;;
77010;SDS011;65945;53.148;17.956;2023-03-19T09:54:56;38.80;;;19.00;;
77010;SDS011;65945;53.148;17.956;2023-03-19T09:57:28;33.10;;;16.00;;
77010;SDS011;65945;53.148;17.956;2023-03-19T09:59:55;31.00;;;15.10;;
77010;SDS011;65945;53.148;17.956;2023-03-19T10:02:28;30.40;;;15.80;;
77010;SDS011;65945;53.148;17.956;2023-03-19T10:08:02;27.80;;;13.60;;
77010;SDS011;65945;53.148;17.956;2023-03-19T10:15:56;24.70;;;13.50;;
77010;SDS011;65945;53.148;17.956;2023-03-19T10:18:30;32.20;;;14.80;;
77010;SDS011;65945;53.148;17.956;2023-03-19T10:21:09;25.10;;;13.60;;
77010;SDS011;65945;53.148;17.956;2023-03-19T10:26:55;27.20;;;12.90;;
77010;SDS011;65945;53.148;17.956;2023-03-19T10:29:25;24.10;;;12.70;;
77010;SDS011;65945;53.148;17.956;2023-03-19T10:31:59;21.60;;;9.90;;
77010;SDS011;65945;53.148;17.956;2023-03-19T10:34:35;35.10;;;10.30;;
77010;SDS011;65945;53.148;17.956;2023-03-19T10:39:39;22.00;;;10.60;;
77010;SDS011;65945;53.148;17.956;2023-03-19T10:47:55;23.40;;;11.40;;
77010;SDS011;65945;53.148;17.956;2023-03-19T10:50:30;23.90;;;11.30;;
77010;SDS011;65945;53.148;17.956;2023-03-19T10:53:10;22.30;;;11.30;;
77010;SDS011;65945;53.148;17.956;2023-03-19T10:58:27;19.60;;;10.60;;
77010;SDS011;65945;53.148;17.956;2023-03-19T11:01:17;22.70;;;12.30;;
77010;SDS011;65945;53.148;17.956;2023-03-19T11:03:49;22.80;;;11.70;;
77010;SDS011;65945;53.148;17.956;2023-03-19T11:14:06;22.60;;;10.40;;
77010;SDS011;65945;53.148;17.956;2023-03-19T11:19:21;20.50;;;9.30;;
77010;SDS011;65945;53.148;17.956;2023-03-19T11:24:38;21.60;;;9.50;;
77010;SDS011;65945;53.148;17.956;2023-03-19T11:27:06;17.90;;;7.60;;
77010;SDS011;65945;53.148;17.956;2023-03-19T11:29:39;18.70;;;8.90;;
77010;SDS011;65945;53.148;17.956;2023-03-19T11:32:11;16.10;;;8.80;;
77010;SDS011;65945;53.148;17.956;2023-03-19T11:34:55;19.20;;;9.30;;
77010;SDS011;65945;53.148;17.956;2023-03-19T11:40:04;18.90;;;9.90;;
77010;SDS011;65945;53.148;17.956;2023-03-19T11:50:48;18.00;;;8.40;;
77010;SDS011;65945;53.148;17.956;2023-03-19T11:53:26;16.60;;;8.50;;
77010;SDS011;65945;53.148;17.956;2023-03-19T11:56:28;17.00;;;7.70;;
77010;SDS011;65945;53.148;17.956;2023-03-19T11:59:11;18.80;;;8.70;;
77010;SDS011;65945;53.148;17.956;2023-03-19T12:02:02;16.80;;;8.30;;
77010;SDS011;65945;53.148;17.956;2023-03-19T12:08:12;15.80;;;8.40;;
77010;SDS011;65945;53.148;17.956;2023-03-19T12:31:22;56.40;;;26.30;;
77010;SDS011;65945;53.148;17.956;2023-03-19T12:34:05;47.20;;;20.80;;
77010;SDS011;65945;53.148;17.956;2023-03-19T12:37:20;22.40;;;12.10;;
77010;SDS011;65945;53.148;17.956;2023-03-19T12:40:00;27.90;;;14.50;;
77010;SDS011;65945;53.148;17.956;2023-03-19T12:42:31;34.30;;;17.20;;
77010;SDS011;65945;53.148;17.956;2023-03-19T12:45:03;39.00;;;21.20;;
77010;SDS011;65945;53.148;17.956;2023-03-19T12:47:41;18.10;;;11.00;;
77010;SDS011;65945;53.148;17.956;2023-03-19T12:50:12;18.90;;;10.70;;
77010;SDS011;65945;53.148;17.956;2023-03-19T12:52:49;18.10;;;9.30;;
77010;SDS011;65945;53.148;17.956;2023-03-19T12:55:20;21.10;;;11.30;;
77010;SDS011;65945;53.148;17.956;2023-03-19T12:57:53;17.70;;;9.70;;
77010;SDS011;65945;53.148;17.956;2023-03-19T13:03:33;22.90;;;10.70;;
77010;SDS011;65945;53.148;17.956;2023-03-19T13:06:08;29.00;;;14.40;;
77010;SDS011;65945;53.148;17.956;2023-03-19T13:08:46;31.90;;;13.90;;
77010;SDS011;65945;53.148;17.956;2023-03-19T13:14:21;22.80;;;12.30;;
77010;SDS011;65945;53.148;17.956;2023-03-19T13:22:09;15.30;;;7.90;;
77010;SDS011;65945;53.148;17.956;2023-03-19T13:24:41;22.20;;;11.20;;
77010;SDS011;65945;53.148;17.956;2023-03-19T13:27:12;17.10;;;9.30;;
77010;SDS011;65945;53.148;17.956;2023-03-19T13:33:01;17.80;;;10.40;;
77010;SDS011;65945;53.148;17.956;2023-03-19T13:35:36;23.30;;;12.80;;
77010;SDS011;65945;53.148;17.956;2023-03-19T13:38:24;31.70;;;16.50;;
77010;SDS011;65945;53.148;17.956;2023-03-19T13:40:54;24.40;;;12.80;;
77010;SDS011;65945;53.148;17.956;2023-03-19T13:59:25;19.50;;;11.20;;
77010;SDS011;65945;53.148;17.956;2023-03-19T14:01:53;23.10;;;12.30;;
77010;SDS011;65945;53.148;17.956;2023-03-19T14:04:24;35.30;;;16.40;;
77010;SDS011;65945;53.148;17.956;2023-03-19T14:07:15;43.90;;;21.80;;
77010;SDS011;65945;53.148;17.956;2023-03-19T14:09:47;29.40;;;15.30;;
77010;SDS011;65945;53.148;17.956;2023-03-19T14:14:49;20.90;;;12.50;;
77010;SDS011;65945;53.148;17.956;2023-03-19T14:17:35;23.20;;;13.20;;
77010;SDS011;65945;53.148;17.956;2023-03-19T14:22:54;25.00;;;14.00;;
77010;SDS011;65945;53.148;17.956;2023-03-19T14:31:21;25.10;;;14.00;;
77010;SDS011;65945;53.148;17.956;2023-03-19T14:33:54;25.60;;;13.60;;
77010;SDS011;65945;53.148;17.956;2023-03-19T14:36:26;22.70;;;13.50;;
77010;SDS011;65945;53.148;17.956;2023-03-19T14:39:01;34.30;;;17.10;;
77010;SDS011;65945;53.148;17.956;2023-03-19T14:41:50;30.70;;;16.20;;
77010;SDS011;65945;53.148;17.956;2023-03-19T14:53:29;33.00;;;15.90;;
77010;SDS011;65945;53.148;17.956;2023-03-19T14:56:25;40.70;;;19.30;;
77010;SDS011;65945;53.148;17.956;2023-03-19T14:58:57;32.60;;;17.00;;
77010;SDS011;65945;53.148;17.956;2023-03-19T15:01:29;30.60;;;15.60;;
77010;SDS011;65945;53.148;17.956;2023-03-19T15:03:59;22.80;;;11.40;;
77010;SDS011;65945;53.148;17.956;2023-03-19T15:06:33;23.30;;;11.60;;
77010;SDS011;65945;53.148;17.956;2023-03-19T15:09:05;20.80;;;11.10;;
77010;SDS011;65945;53.148;17.956;2023-03-19T15:19:29;27.20;;;15.00;;
77010;SDS011;65945;53.148;17.956;2023-03-19T15:22:13;46.40;;;15.30;;
77010;SDS011;65945;53.148;17.956;2023-03-19T15:24:44;29.00;;;15.70;;
77010;SDS011;65945;53.148;17.956;2023-03-19T15:27:15;43.60;;;20.60;;
77010;SDS011;65945;53.148;17.956;2023-03-19T15:29:43;32.70;;;17.30;;
77010;SDS011;65945;53.148;17.956;2023-03-19T15:32:10;29.10;;;15.30;;
77010;SDS011;65945;53.148;17.956;2023-03-19T15:34:36;29.20;;;13.80;;
77010;SDS011;65945;53.148;17.956;2023-03-19T15:37:06;30.50;;;13.90;;
77010;SDS011;65945;53.148;17.956;2023-03-19T15:39:40;27.50;;;13.90;;
77010;SDS011;65945;53.148;17.956;2023-03-19T15:42:12;26.60;;;13.30;;
77010;SDS011;65945;53.148;17.956;2023-03-19T15:44:42;26.80;;;14.00;;
77010;SDS011;65945;53.148;17.956;2023-03-19T15:47:14;31.00;;;15.90;;
77010;SDS011;65945;53.148;17.956;2023-03-19T15:49:48;35.90;;;16.90;;
77010;SDS011;65945;53.148;17.956;2023-03-19T15:52:20;31.90;;;15.60;;
77010;SDS011;65945;53.148;17.956;2023-03-19T15:54:48;31.20;;;15.70;;
77010;SDS011;65945;53.148;17.956;2023-03-19T15:57:15;44.50;;;20.50;;
77010;SDS011;65945;53.148;17.956;2023-03-19T15:59:43;83.80;;;37.20;;
77010;SDS011;65945;53.148;17.956;2023-03-19T16:02:21;120.40;;;50.50;;
77010;SDS011;65945;53.148;17.956;2023-03-19T16:04:52;128.00;;;55.10;;
77010;SDS011;65945;53.148;17.956;2023-03-19T16:07:21;107.20;;;50.00;;
77010;SDS011;65945;53.148;17.956;2023-03-19T16:10:21;58.20;;;28.30;;
77010;SDS011;65945;53.148;17.956;2023-03-19T16:12:58;50.90;;;24.70;;
77010;SDS011;65945;53.148;17.956;2023-03-19T16:18:23;58.60;;;28.00;;
77010;SDS011;65945;53.148;17.956;2023-03-19T16:23:28;47.50;;;25.00;;
77010;SDS011;65945;53.148;17.956;2023-03-19T16:26:02;51.90;;;25.70;;
77010;SDS011;65945;53.148;17.956;2023-03-19T16:28:39;47.20;;;21.30;;
77010;SDS011;65945;53.148;17.956;2023-03-19T16:31:17;35.20;;;18.50;;
77010;SDS011;65945;53.148;17.956;2023-03-19T16:33:48;38.60;;;18.30;;
77010;SDS011;65945;53.148;17.956;2023-03-19T16:36:17;31.20;;;16.10;;
77010;SDS011;65945;53.148;17.956;2023-03-19T16:38:51;31.80;;;14.90;;
77010;SDS011;65945;53.148;17.956;2023-03-19T16:43:50;63.20;;;25.30;;
77010;SDS011;65945;53.148;17.956;2023-03-19T16:46:19;66.40;;;27.80;;
77010;SDS011;65945;53.148;17.956;2023-03-19T16:48:46;128.30;;;49.90;;
77010;SDS011;65945;53.148;17.956;2023-03-19T16:51:14;157.80;;;61.00;;
77010;SDS011;65945;53.148;17.956;2023-03-19T16:53:43;246.10;;;102.10;;
77010;SDS011;65945;53.148;17.956;2023-03-19T16:56:11;188.80;;;81.50;;
77010;SDS011;65945;53.148;17.956;2023-03-19T16:58:43;111.50;;;53.70;;
77010;SDS011;65945;53.148;17.956;2023-03-19T17:01:18;82.60;;;40.20;;
77010;SDS011;65945;53.148;17.956;2023-03-19T17:03:47;65.80;;;32.30;;